sensor_id;sensor_type;location;lat;lon;timestamp;pressure;altitude;pressure_sealevel;temperature;humidity
34742;BME280;20968;42.696;23.360;2023-05-09T00:02:09;95524.06;;;16.49;66.98
34742;BME280;20968;42.696;23.360;2023-05-09T00:04:34;95524.06;;;16.49;67.28
34742;BME280;20968;42.696;23.360;2023-05-09T00:07:00;95513.94;;;16.57;66.74
34742;BME280;20968;42.696;23.360;2023-05-09T00:09:25;95521.81;;;16.53;67.40
34742;BME280;20968;42.696;23.360;2023-05-09T00:11:51;95512.47;;;16.51;67.54
34742;BME280;20968;42.696;23.360;2023-05-09T00:14:16;95516.47;;;16.55;67.51
34742;BME280;20968;42.696;23.360;2023-05-09T00:16:45;95522.28;;;16.52;67.98
34742;BME280;20968;42.696;23.360;2023-05-09T00:19:11;95518.50;;;16.55;67.37
34742;BME280;20968;42.696;23.360;2023-05-09T00:21:37;95521.03;;;16.58;67.62
34742;BME280;20968;42.696;23.360;2023-05-09T00:24:03;95513.47;;;16.59;67.41
34742;BME280;20968;42.696;23.360;2023-05-09T00:26:29;95500.81;;;16.52;67.63
34742;BME280;20968;42.696;23.360;2023-05-09T00:28:55;95506.13;;;16.56;66.82
34742;BME280;20968;42.696;23.360;2023-05-09T00:31:20;95497.78;;;16.45;67.18
34742;BME280;20968;42.696;23.360;2023-05-09T00:33:47;95501.09;;;16.38;67.55
34742;BME280;20968;42.696;23.360;2023-05-09T00:36:12;95504.13;;;16.35;67.71
34742;BME280;20968;42.696;23.360;2023-05-09T00:38:38;95496.31;;;16.38;67.73
34742;BME280;20968;42.696;23.360;2023-05-09T00:41:03;95497.81;;;16.39;68.34
34742;BME280;20968;42.696;23.360;2023-05-09T00:43:29;95508.69;;;16.43;68.53
34742;BME280;20968;42.696;23.360;2023-05-09T00:45:54;95510.94;;;16.44;68.17
34742;BME280;20968;42.696;23.360;2023-05-09T00:48:20;95506.38;;;16.41;68.19
34742;BME280;20968;42.696;23.360;2023-05-09T00:50:46;95505.38;;;16.44;68.28
34742;BME280;20968;42.696;23.360;2023-05-09T00:53:23;95492.00;;;16.38;67.82
34742;BME280;20968;42.696;23.360;2023-05-09T00:55:48;95493.75;;;16.40;67.49
34742;BME280;20968;42.696;23.360;2023-05-09T00:58:15;95494.00;;;16.37;68.47
34742;BME280;20968;42.696;23.360;2023-05-09T01:00:44;95501.34;;;16.40;67.94
34742;BME280;20968;42.696;23.360;2023-05-09T01:03:10;95496.03;;;16.42;67.82
34742;BME280;20968;42.696;23.360;2023-05-09T01:10:55;95495.03;;;16.12;67.03
34742;BME280;20968;42.696;23.360;2023-05-09T01:16:24;95492.72;;;15.61;68.41
34742;BME280;20968;42.696;23.360;2023-05-09T01:21:39;95488.41;;;15.33;69.67
34742;BME280;20968;42.696;23.360;2023-05-09T01:30:07;95501.72;;;15.18;70.11
34742;BME280;20968;42.696;23.360;2023-05-09T01:32:35;95488.09;;;15.15;70.05
34742;BME280;20968;42.696;23.360;2023-05-09T01:35:10;95500.00;;;15.26;70.45
34742;BME280;20968;42.696;23.360;2023-05-09T01:37:38;95502.03;;;15.37;69.62
34742;BME280;20968;42.696;23.360;2023-05-09T01:40:14;95509.88;;;15.55;70.16
34742;BME280;20968;42.696;23.360;2023-05-09T01:43:04;95498.28;;;15.61;70.64
34742;BME280;20968;42.696;23.360;2023-05-09T01:45:32;95500.81;;;15.65;70.66
34742;BME280;20968;42.696;23.360;2023-05-09T01:47:59;95515.97;;;15.75;70.56
34742;BME280;20968;42.696;23.360;2023-05-09T01:50:26;95502.63;;;15.79;70.42
34742;BME280;20968;42.696;23.360;2023-05-09T01:52:54;95509.94;;;15.93;70.60
34742;BME280;20968;42.696;23.360;2023-05-09T01:55:24;95504.13;;;15.91;70.64
34742;BME280;20968;42.696;23.360;2023-05-09T01:57:51;95512.47;;;15.91;69.51
34742;BME280;20968;42.696;23.360;2023-05-09T02:00:17;95512.97;;;15.95;68.58
34742;BME280;20968;42.696;23.360;2023-05-09T02:02:45;95512.97;;;16.00;69.33
34742;BME280;20968;42.696;23.360;2023-05-09T02:05:13;95514.00;;;15.97;68.80
34742;BME280;20968;42.696;23.360;2023-05-09T02:07:42;95499.34;;;15.86;68.66
34742;BME280;20968;42.696;23.360;2023-05-09T02:10:09;95508.94;;;15.85;68.41
34742;BME280;20968;42.696;23.360;2023-05-09T02:12:35;95508.44;;;15.92;68.64
34742;BME280;20968;42.696;23.360;2023-05-09T02:15:01;95502.09;;;15.91;68.54
34742;BME280;20968;42.696;23.360;2023-05-09T02:17:27;95504.88;;;15.97;68.66
34742;BME280;20968;42.696;23.360;2023-05-09T02:19:55;95505.41;;;16.01;68.43
34742;BME280;20968;42.696;23.360;2023-05-09T02:22:20;95507.94;;;16.10;68.04
34742;BME280;20968;42.696;23.360;2023-05-09T02:24:46;95501.84;;;16.06;68.80
34742;BME280;20968;42.696;23.360;2023-05-09T02:27:13;95498.59;;;16.02;68.85
34742;BME280;20968;42.696;23.360;2023-05-09T02:29:45;95504.63;;;15.95;68.74
34742;BME280;20968;42.696;23.360;2023-05-09T02:32:16;95504.16;;;16.02;67.71
34742;BME280;20968;42.696;23.360;2023-05-09T02:34:46;95516.50;;;16.12;68.14
34742;BME280;20968;42.696;23.360;2023-05-09T02:37:12;95511.47;;;16.10;68.17
34742;BME280;20968;42.696;23.360;2023-05-09T02:39:39;95510.69;;;16.21;68.17
34742;BME280;20968;42.696;23.360;2023-05-09T02:42:07;95509.16;;;16.20;68.22
34742;BME280;20968;42.696;23.360;2023-05-09T02:44:33;95519.28;;;16.23;68.07
34742;BME280;20968;42.696;23.360;2023-05-09T02:46:59;95518.78;;;16.24;68.03
34742;BME280;20968;42.696;23.360;2023-05-09T02:49:25;95504.88;;;16.19;68.23
34742;BME280;20968;42.696;23.360;2023-05-09T02:51:51;95515.25;;;16.24;68.01
34742;BME280;20968;42.696;23.360;2023-05-09T02:54:16;95504.63;;;16.11;68.47
34742;BME280;20968;42.696;23.360;2023-05-09T02:56:43;95520.28;;;16.20;68.51
34742;BME280;20968;42.696;23.360;2023-05-09T02:59:08;95513.72;;;16.12;68.53
34742;BME280;20968;42.696;23.360;2023-05-09T03:01:33;95502.84;;;16.03;69.62
34742;BME280;20968;42.696;23.360;2023-05-09T03:04:01;95515.75;;;15.89;69.78
34742;BME280;20968;42.696;23.360;2023-05-09T03:06:26;95512.97;;;15.84;70.41
34742;BME280;20968;42.696;23.360;2023-05-09T03:08:52;95522.06;;;15.79;70.58
34742;BME280;20968;42.696;23.360;2023-05-09T03:11:19;95538.19;;;15.75;71.29
34742;BME280;20968;42.696;23.360;2023-05-09T03:13:45;95533.63;;;15.61;71.85
34742;BME280;20968;42.696;23.360;2023-05-09T03:16:16;95537.66;;;15.60;72.36
34742;BME280;20968;42.696;23.360;2023-05-09T03:18:42;95537.66;;;15.60;72.27
34742;BME280;20968;42.696;23.360;2023-05-09T03:21:08;95546.53;;;15.64;72.17
34742;BME280;20968;42.696;23.360;2023-05-09T03:23:38;95545.00;;;15.63;72.03
34742;BME280;20968;42.696;23.360;2023-05-09T03:26:05;95555.09;;;15.66;72.03
34742;BME280;20968;42.696;23.360;2023-05-09T03:28:32;95562.16;;;15.67;71.93
34742;BME280;20968;42.696;23.360;2023-05-09T03:30:58;95556.63;;;15.67;72.08
34742;BME280;20968;42.696;23.360;2023-05-09T03:33:24;95555.84;;;15.72;71.83
34742;BME280;20968;42.696;23.360;2023-05-09T03:35:51;95565.22;;;15.74;72.40
34742;BME280;20968;42.696;23.360;2023-05-09T03:38:17;95564.19;;;15.72;72.30
34742;BME280;20968;42.696;23.360;2023-05-09T03:40:42;95573.56;;;15.74;72.36
34742;BME280;20968;42.696;23.360;2023-05-09T03:43:11;95564.19;;;15.66;72.19
34742;BME280;20968;42.696;23.360;2023-05-09T03:45:37;95567.75;;;15.72;71.78
34742;BME280;20968;42.696;23.360;2023-05-09T03:48:04;95568.22;;;15.60;71.71
34742;BME280;20968;42.696;23.360;2023-05-09T03:50:32;95576.81;;;15.62;71.61
34742;BME280;20968;42.696;23.360;2023-05-09T03:52:58;95557.31;;;15.51;71.52
34742;BME280;20968;42.696;23.360;2023-05-09T03:55:25;95562.88;;;15.51;72.10
34742;BME280;20968;42.696;23.360;2023-05-09T03:57:53;95560.84;;;15.46;72.02
34742;BME280;20968;42.696;23.360;2023-05-09T04:00:19;95561.63;;;15.52;71.37
34742;BME280;20968;42.696;23.360;2023-05-09T04:02:58;95562.88;;;15.51;71.30
34742;BME280;20968;42.696;23.360;2023-05-09T04:05:23;95563.38;;;15.44;71.62
34742;BME280;20968;42.696;23.360;2023-05-09T04:07:50;95569.94;;;15.41;72.44
34742;BME280;20968;42.696;23.360;2023-05-09T04:10:16;95568.38;;;15.35;73.38
34742;BME280;20968;42.696;23.360;2023-05-09T04:12:44;95569.13;;;15.24;73.04
34742;BME280;20968;42.696;23.360;2023-05-09T04:15:10;95563.25;;;15.22;73.14
34742;BME280;20968;42.696;23.360;2023-05-09T04:17:36;95570.66;;;15.36;73.21
34742;BME280;20968;42.696;23.360;2023-05-09T04:20:02;95569.13;;;15.24;73.20
34742;BME280;20968;42.696;23.360;2023-05-09T04:22:27;95572.72;;;15.52;75.53
34742;BME280;20968;42.696;23.360;2023-05-09T04:24:54;95574.53;;;15.66;72.82
34742;BME280;20968;42.696;23.360;2023-05-09T04:27:24;95584.91;;;15.71;72.72
34742;BME280;20968;42.696;23.360;2023-05-09T04:29:52;95577.59;;;15.84;71.71
34742;BME280;20968;42.696;23.360;2023-05-09T04:32:17;95579.84;;;15.75;71.27
34742;BME280;20968;42.696;23.360;2023-05-09T04:34:49;95583.09;;;15.62;71.32
34742;BME280;20968;42.696;23.360;2023-05-09T04:37:14;95577.06;;;15.75;71.44
34742;BME280;20968;42.696;23.360;2023-05-09T04:39:41;95576.81;;;15.62;71.01
34742;BME280;20968;42.696;23.360;2023-05-09T04:42:06;95582.13;;;15.71;70.55
34742;BME280;20968;42.696;23.360;2023-05-09T04:44:32;95583.09;;;15.52;70.85
34742;BME280;20968;42.696;23.360;2023-05-09T04:46:59;95581.06;;;15.52;71.42
34742;BME280;20968;42.696;23.360;2023-05-09T04:49:25;95573.25;;;15.51;71.24
34742;BME280;20968;42.696;23.360;2023-05-09T04:51:51;95579.59;;;15.62;70.57
34742;BME280;20968;42.696;23.360;2023-05-09T04:54:18;95578.56;;;15.65;70.88
34742;BME280;20968;42.696;23.360;2023-05-09T04:56:43;95576.34;;;15.74;73.78
34742;BME280;20968;42.696;23.360;2023-05-09T04:59:09;95584.69;;;15.91;72.62
34742;BME280;20968;42.696;23.360;2023-05-09T05:01:34;95578.88;;;16.11;73.42
34742;BME280;20968;42.696;23.360;2023-05-09T05:03:59;95583.22;;;16.44;73.90
34742;BME280;20968;42.696;23.360;2023-05-09T05:06:25;95575.13;;;16.25;69.68
34742;BME280;20968;42.696;23.360;2023-05-09T05:08:50;95579.69;;;16.17;69.59
34742;BME280;20968;42.696;23.360;2023-05-09T05:11:16;95570.81;;;15.96;69.29
34742;BME280;20968;42.696;23.360;2023-05-09T05:13:44;95576.34;;;15.85;70.09
34742;BME280;20968;42.696;23.360;2023-05-09T05:16:14;95576.84;;;15.84;70.58
34742;BME280;20968;42.696;23.360;2023-05-09T05:18:39;95570.28;;;15.92;70.00
34742;BME280;20968;42.696;23.360;2023-05-09T05:21:05;95574.09;;;16.00;70.04
34742;BME280;20968;42.696;23.360;2023-05-09T05:23:31;95571.28;;;15.95;70.57
34742;BME280;20968;42.696;23.360;2023-05-09T05:25:56;95579.38;;;16.04;70.40
34742;BME280;20968;42.696;23.360;2023-05-09T05:28:22;95578.91;;;16.16;70.04
34742;BME280;20968;42.696;23.360;2023-05-09T05:30:47;95576.63;;;16.15;68.84
34742;BME280;20968;42.696;23.360;2023-05-09T05:33:13;95584.72;;;16.02;68.36
34742;BME280;20968;42.696;23.360;2023-05-09T05:35:38;95585.50;;;16.30;72.54
34742;BME280;20968;42.696;23.360;2023-05-09T05:38:03;95581.72;;;16.54;70.81
34742;BME280;20968;42.696;23.360;2023-05-09T05:40:29;95588.50;;;16.81;73.71
34742;BME280;20968;42.696;23.360;2023-05-09T05:42:56;95587.69;;;17.02;70.60
34742;BME280;20968;42.696;23.360;2023-05-09T05:45:21;95599.34;;;17.01;68.27
34742;BME280;20968;42.696;23.360;2023-05-09T05:47:47;95584.09;;;17.18;69.32
34742;BME280;20968;42.696;23.360;2023-05-09T05:50:12;95591.84;;;17.47;67.95
34742;BME280;20968;42.696;23.360;2023-05-09T05:52:38;95596.31;;;17.66;67.15
34742;BME280;20968;42.696;23.360;2023-05-09T05:55:04;95593.94;;;17.87;66.82
34742;BME280;20968;42.696;23.360;2023-05-09T05:57:30;95600.75;;;17.91;64.27
34742;BME280;20968;42.696;23.360;2023-05-09T05:59:56;95588.59;;;17.48;62.29
34742;BME280;20968;42.696;23.360;2023-05-09T06:02:23;95593.63;;;17.50;62.32
34742;BME280;20968;42.696;23.360;2023-05-09T06:04:48;95598.53;;;17.11;62.81
34742;BME280;20968;42.696;23.360;2023-05-09T06:07:13;95601.38;;;16.78;63.44
34742;BME280;20968;42.696;23.360;2023-05-09T06:09:39;95597.34;;;16.79;64.08
34742;BME280;20968;42.696;23.360;2023-05-09T06:12:05;95595.09;;;16.61;64.59
34742;BME280;20968;42.696;23.360;2023-05-09T06:14:31;95588.53;;;16.37;63.99
34742;BME280;20968;42.696;23.360;2023-05-09T06:16:58;95594.34;;;16.34;65.02
34742;BME280;20968;42.696;23.360;2023-05-09T06:19:23;95599.38;;;16.08;64.86
34742;BME280;20968;42.696;23.360;2023-05-09T06:21:50;95598.88;;;16.15;64.89
34742;BME280;20968;42.696;23.360;2023-05-09T06:24:15;95590.78;;;16.17;66.56
34742;BME280;20968;42.696;23.360;2023-05-09T06:26:41;95587.00;;;16.09;65.87
34742;BME280;20968;42.696;23.360;2023-05-09T06:29:06;95602.34;;;15.93;65.38
34742;BME280;20968;42.696;23.360;2023-05-09T06:31:32;95593.53;;;15.89;66.04
34742;BME280;20968;42.696;23.360;2023-05-09T06:34:03;95600.59;;;15.85;66.26
34742;BME280;20968;42.696;23.360;2023-05-09T06:36:28;95592.28;;;16.01;67.01
34742;BME280;20968;42.696;23.360;2023-05-09T06:38:54;95597.84;;;16.07;65.69
34742;BME280;20968;42.696;23.360;2023-05-09T06:41:20;95597.06;;;16.06;65.29
34742;BME280;20968;42.696;23.360;2023-05-09T06:43:45;95586.69;;;15.96;65.67
34742;BME280;20968;42.696;23.360;2023-05-09T06:46:11;95585.72;;;16.26;64.98
34742;BME280;20968;42.696;23.360;2023-05-09T06:48:36;95591.56;;;16.44;65.10
34742;BME280;20968;42.696;23.360;2023-05-09T06:51:02;95594.09;;;16.42;63.99
34742;BME280;20968;42.696;23.360;2023-05-09T06:53:27;95593.56;;;16.28;64.18
34742;BME280;20968;42.696;23.360;2023-05-09T06:55:53;95597.34;;;16.19;64.69
34742;BME280;20968;42.696;23.360;2023-05-09T06:58:18;95594.06;;;16.04;64.92
34742;BME280;20968;42.696;23.360;2023-05-09T07:00:44;95595.31;;;16.09;64.88
34742;BME280;20968;42.696;23.360;2023-05-09T07:03:09;95592.34;;;16.29;65.27
34742;BME280;20968;42.696;23.360;2023-05-09T07:05:35;95596.06;;;16.26;64.33
34742;BME280;20968;42.696;23.360;2023-05-09T07:08:01;95593.34;;;16.31;64.83
34742;BME280;20968;42.696;23.360;2023-05-09T07:10:26;95588.50;;;16.26;63.88
34742;BME280;20968;42.696;23.360;2023-05-09T07:12:53;95582.19;;;16.26;63.01
34742;BME280;20968;42.696;23.360;2023-05-09T07:15:19;95589.53;;;16.45;62.95
34742;BME280;20968;42.696;23.360;2023-05-09T07:17:44;95585.25;;;16.33;63.29
34742;BME280;20968;42.696;23.360;2023-05-09T07:20:10;95575.88;;;16.25;64.69
34742;BME280;20968;42.696;23.360;2023-05-09T07:22:35;95586.00;;;16.39;65.20
34742;BME280;20968;42.696;23.360;2023-05-09T07:25:01;95583.97;;;16.45;63.38
34742;BME280;20968;42.696;23.360;2023-05-09T07:27:26;95589.25;;;16.27;64.01
34742;BME280;20968;42.696;23.360;2023-05-09T07:29:51;95591.06;;;16.30;64.47
34742;BME280;20968;42.696;23.360;2023-05-09T07:32:18;95587.50;;;16.29;63.87
34742;BME280;20968;42.696;23.360;2023-05-09T07:34:46;95594.59;;;16.30;64.47
34742;BME280;20968;42.696;23.360;2023-05-09T07:37:12;95586.72;;;16.18;64.60
34742;BME280;20968;42.696;23.360;2023-05-09T07:39:37;95590.28;;;16.24;63.91
34742;BME280;20968;42.696;23.360;2023-05-09T07:42:03;95585.50;;;16.51;64.49
34742;BME280;20968;42.696;23.360;2023-05-09T07:44:29;95600.91;;;16.69;62.97
34742;BME280;20968;42.696;23.360;2023-05-09T07:46:56;95603.69;;;16.80;62.69
34742;BME280;20968;42.696;23.360;2023-05-09T07:49:24;95604.44;;;16.80;62.65
34742;BME280;20968;42.696;23.360;2023-05-09T07:51:49;95603.69;;;16.80;62.67
34742;BME280;20968;42.696;23.360;2023-05-09T07:54:15;95593.81;;;16.84;63.24
34742;BME280;20968;42.696;23.360;2023-05-09T07:56:41;95597.63;;;16.70;61.81
34742;BME280;20968;42.696;23.360;2023-05-09T07:59:07;95587.47;;;16.78;62.35
34742;BME280;20968;42.696;23.360;2023-05-09T08:01:32;95599.34;;;16.95;62.67
34742;BME280;20968;42.696;23.360;2023-05-09T08:03:58;95595.28;;;16.96;62.51
34742;BME280;20968;42.696;23.360;2023-05-09T08:06:24;95588.25;;;16.73;62.64
34742;BME280;20968;42.696;23.360;2023-05-09T08:08:50;95595.34;;;16.41;62.73
34742;BME280;20968;42.696;23.360;2023-05-09T08:11:16;95590.31;;;16.35;63.75
34742;BME280;20968;42.696;23.360;2023-05-09T08:13:41;95589.03;;;16.19;63.41
34742;BME280;20968;42.696;23.360;2023-05-09T08:16:07;95591.03;;;16.24;63.62
34742;BME280;20968;42.696;23.360;2023-05-09T08:18:32;95601.16;;;16.38;63.44
34742;BME280;20968;42.696;23.360;2023-05-09T08:20:57;95602.19;;;16.35;63.26
34742;BME280;20968;42.696;23.360;2023-05-09T08:23:24;95595.06;;;16.23;63.44
34742;BME280;20968;42.696;23.360;2023-05-09T08:25:53;95593.59;;;16.38;62.53
34742;BME280;20968;42.696;23.360;2023-05-09T08:28:19;95582.47;;;16.33;63.26
34742;BME280;20968;42.696;23.360;2023-05-09T08:30:46;95597.66;;;16.43;63.37
34742;BME280;20968;42.696;23.360;2023-05-09T08:33:11;95595.38;;;16.52;63.89
34742;BME280;20968;42.696;23.360;2023-05-09T08:35:37;95600.16;;;16.41;63.30
34742;BME280;20968;42.696;23.360;2023-05-09T08:38:02;95586.50;;;16.70;64.45
34742;BME280;20968;42.696;23.360;2023-05-09T08:40:28;95596.06;;;16.80;63.02
34742;BME280;20968;42.696;23.360;2023-05-09T08:42:53;95582.69;;;16.84;62.43
34742;BME280;20968;42.696;23.360;2023-05-09T08:45:24;95599.59;;;16.86;62.83
34742;BME280;20968;42.696;23.360;2023-05-09T08:47:52;95600.34;;;17.03;63.24
34742;BME280;20968;42.696;23.360;2023-05-09T08:50:18;95590.81;;;17.55;62.62
34742;BME280;20968;42.696;23.360;2023-05-09T08:52:44;95584.97;;;17.64;59.06
34742;BME280;20968;42.696;23.360;2023-05-09T08:55:10;95593.53;;;17.72;60.15
34742;BME280;20968;42.696;23.360;2023-05-09T08:57:36;95594.50;;;17.80;58.80
34742;BME280;20968;42.696;23.360;2023-05-09T09:00:03;95591.44;;;17.83;58.05
34742;BME280;20968;42.696;23.360;2023-05-09T09:02:35;95591.03;;;17.63;57.52
34742;BME280;20968;42.696;23.360;2023-05-09T09:05:01;95590.06;;;17.55;58.24
34742;BME280;20968;42.696;23.360;2023-05-09T09:07:27;95585.03;;;17.48;57.72
34742;BME280;20968;42.696;23.360;2023-05-09T09:09:54;95587.81;;;17.48;59.02
34742;BME280;20968;42.696;23.360;2023-05-09T09:12:22;95588.88;;;17.34;58.51
34742;BME280;20968;42.696;23.360;2023-05-09T09:14:52;95586.78;;;17.51;57.81
34742;BME280;20968;42.696;23.360;2023-05-09T09:17:19;95581.22;;;17.51;59.01
34742;BME280;20968;42.696;23.360;2023-05-09T09:19:48;95581.16;;;17.62;57.86
34742;BME280;20968;42.696;23.360;2023-05-09T09:22:18;95580.25;;;17.89;58.34
34742;BME280;20968;42.696;23.360;2023-05-09T09:24:44;95583.97;;;18.02;57.00
34742;BME280;20968;42.696;23.360;2023-05-09T09:27:10;95588.34;;;17.92;56.90
34742;BME280;20968;42.696;23.360;2023-05-09T09:29:35;95588.09;;;17.90;57.60
34742;BME280;20968;42.696;23.360;2023-05-09T09:32:04;95573.97;;;18.23;57.93
34742;BME280;20968;42.696;23.360;2023-05-09T09:34:30;95583.16;;;18.47;58.58
34742;BME280;20968;42.696;23.360;2023-05-09T09:36:55;95576.81;;;19.00;57.82
34742;BME280;20968;42.696;23.360;2023-05-09T09:39:23;95587.41;;;19.07;56.52
34742;BME280;20968;42.696;23.360;2023-05-09T09:41:49;95585.72;;;18.98;56.15
34742;BME280;20968;42.696;23.360;2023-05-09T09:44:18;95584.97;;;19.22;56.35
34742;BME280;20968;42.696;23.360;2023-05-09T09:46:46;95581.03;;;19.36;55.15
34742;BME280;20968;42.696;23.360;2023-05-09T09:49:12;95589.72;;;19.32;55.06
34742;BME280;20968;42.696;23.360;2023-05-09T09:51:40;95590.13;;;19.60;54.83
34742;BME280;20968;42.696;23.360;2023-05-09T09:54:10;95599.69;;;19.88;54.19
34742;BME280;20968;42.696;23.360;2023-05-09T09:56:44;95596.03;;;19.56;53.10
34742;BME280;20968;42.696;23.360;2023-05-09T09:59:13;95594.88;;;19.23;53.02
34742;BME280;20968;42.696;23.360;2023-05-09T10:01:59;95597.81;;;18.53;55.00
34742;BME280;20968;42.696;23.360;2023-05-09T10:04:30;95583.56;;;18.27;56.15
34742;BME280;20968;42.696;23.360;2023-05-09T10:06:58;95589.69;;;18.26;56.87
34742;BME280;20968;42.696;23.360;2023-05-09T10:09:26;95594.97;;;18.29;56.40
34742;BME280;20968;42.696;23.360;2023-05-09T10:11:53;95578.47;;;17.91;56.85
34742;BME280;20968;42.696;23.360;2023-05-09T10:14:23;95579.31;;;17.75;57.40
34742;BME280;20968;42.696;23.360;2023-05-09T10:16:51;95564.50;;;17.51;57.89
34742;BME280;20968;42.696;23.360;2023-05-09T10:19:19;95562.09;;;17.31;58.27
34742;BME280;20968;42.696;23.360;2023-05-09T10:22:00;95568.59;;;17.39;59.26
34742;BME280;20968;42.696;23.360;2023-05-09T10:27:29;95570.50;;;17.66;58.67
34742;BME280;20968;42.696;23.360;2023-05-09T10:30:12;95579.97;;;17.52;59.01
34742;BME280;20968;42.696;23.360;2023-05-09T10:33:08;95565.22;;;17.62;57.60
34742;BME280;20968;42.696;23.360;2023-05-09T10:35:48;95567.53;;;17.98;60.44
34742;BME280;20968;42.696;23.360;2023-05-09T10:38:16;95559.31;;;18.11;56.67
34742;BME280;20968;42.696;23.360;2023-05-09T10:40:42;95566.44;;;18.07;56.21
34742;BME280;20968;42.696;23.360;2023-05-09T10:43:11;95567.41;;;18.15;56.80
34742;BME280;20968;42.696;23.360;2023-05-09T10:45:38;95568.78;;;18.03;56.84
34742;BME280;20968;42.696;23.360;2023-05-09T10:48:05;95581.81;;;17.79;57.67
34742;BME280;20968;42.696;23.360;2023-05-09T10:50:33;95571.84;;;17.54;57.79
34742;BME280;20968;42.696;23.360;2023-05-09T10:53:03;95572.91;;;17.40;58.29
34742;BME280;20968;42.696;23.360;2023-05-09T10:58:22;95574.88;;;17.50;59.01
34742;BME280;20968;42.696;23.360;2023-05-09T11:00:49;95576.13;;;17.55;58.07
34742;BME280;20968;42.696;23.360;2023-05-09T11:03:15;95568.28;;;17.59;59.55
34742;BME280;20968;42.696;23.360;2023-05-09T11:05:45;95567.06;;;17.43;58.66
34742;BME280;20968;42.696;23.360;2023-05-09T11:08:21;95576.19;;;17.44;59.11
34742;BME280;20968;42.696;23.360;2023-05-09T11:10:48;95570.81;;;17.57;59.42
34742;BME280;20968;42.696;23.360;2023-05-09T11:13:18;95574.56;;;17.65;58.52
34742;BME280;20968;42.696;23.360;2023-05-09T11:18:27;95570.47;;;17.77;58.30
34742;BME280;20968;42.696;23.360;2023-05-09T11:20:53;95576.34;;;17.62;58.93
34742;BME280;20968;42.696;23.360;2023-05-09T11:23:20;95585.09;;;17.37;58.97
34742;BME280;20968;42.696;23.360;2023-05-09T11:25:48;95572.41;;;17.41;58.77
34742;BME280;20968;42.696;23.360;2023-05-09T11:28:30;95574.69;;;17.37;58.83
34742;BME280;20968;42.696;23.360;2023-05-09T11:31:12;95587.09;;;17.36;57.68
34742;BME280;20968;42.696;23.360;2023-05-09T11:33:39;95579.00;;;17.33;58.45
34742;BME280;20968;42.696;23.360;2023-05-09T11:36:21;95578.91;;;17.55;58.45
34742;BME280;20968;42.696;23.360;2023-05-09T11:39:02;95573.81;;;17.64;58.36
34742;BME280;20968;42.696;23.360;2023-05-09T11:41:28;95575.50;;;17.78;57.94
34742;BME280;20968;42.696;23.360;2023-05-09T11:43:54;95575.34;;;18.05;57.43
34742;BME280;20968;42.696;23.360;2023-05-09T11:46:21;95572.44;;;17.87;57.02
34742;BME280;20968;42.696;23.360;2023-05-09T11:48:48;95577.19;;;17.92;57.25
34742;BME280;20968;42.696;23.360;2023-05-09T11:51:17;95574.44;;;17.87;57.23
34742;BME280;20968;42.696;23.360;2023-05-09T11:53:44;95572.69;;;17.84;57.57
34742;BME280;20968;42.696;23.360;2023-05-09T11:56:11;95572.22;;;17.74;58.24
34742;BME280;20968;42.696;23.360;2023-05-09T11:58:38;95575.16;;;17.92;56.13
34742;BME280;20968;42.696;23.360;2023-05-09T12:01:04;95566.91;;;17.76;57.61
34742;BME280;20968;42.696;23.360;2023-05-09T12:03:29;95568.75;;;17.63;57.04
34742;BME280;20968;42.696;23.360;2023-05-09T12:05:55;95576.66;;;17.53;58.06
34742;BME280;20968;42.696;23.360;2023-05-09T12:08:23;95573.44;;;17.33;58.68
34742;BME280;20968;42.696;23.360;2023-05-09T12:10:49;95575.47;;;17.27;58.89
34742;BME280;20968;42.696;23.360;2023-05-09T12:13:14;95574.50;;;17.13;59.28
34742;BME280;20968;42.696;23.360;2023-05-09T12:15:40;95569.97;;;17.05;59.78
34742;BME280;20968;42.696;23.360;2023-05-09T12:18:06;95568.66;;;17.22;59.66
34742;BME280;20968;42.696;23.360;2023-05-09T12:20:47;95580.78;;;17.36;59.28
34742;BME280;20968;42.696;23.360;2023-05-09T12:23:13;95576.06;;;17.04;59.14
34742;BME280;20968;42.696;23.360;2023-05-09T12:25:52;95582.31;;;17.20;59.68
34742;BME280;20968;42.696;23.360;2023-05-09T12:28:19;95583.56;;;17.25;59.89
34742;BME280;20968;42.696;23.360;2023-05-09T12:30:45;95571.94;;;17.21;59.33
34742;BME280;20968;42.696;23.360;2023-05-09T12:33:11;95573.25;;;17.09;60.23
34742;BME280;20968;42.696;23.360;2023-05-09T12:35:38;95570.28;;;16.85;60.14
34742;BME280;20968;42.696;23.360;2023-05-09T12:38:03;95569.81;;;16.59;60.91
34742;BME280;20968;42.696;23.360;2023-05-09T12:40:29;95571.84;;;16.53;61.21
34742;BME280;20968;42.696;23.360;2023-05-09T12:42:56;95575.13;;;16.19;61.83
34742;BME280;20968;42.696;23.360;2023-05-09T12:45:25;95567.81;;;16.33;61.58
34742;BME280;20968;42.696;23.360;2023-05-09T12:47:52;95573.09;;;16.09;61.46
34742;BME280;20968;42.696;23.360;2023-05-09T12:50:17;95567.75;;;15.78;62.86
34742;BME280;20968;42.696;23.360;2023-05-09T12:52:50;95570.75;;;15.80;62.98
34742;BME280;20968;42.696;23.360;2023-05-09T12:55:17;95569.75;;;15.77;63.22
34742;BME280;20968;42.696;23.360;2023-05-09T12:57:56;95562.44;;;15.74;63.03
34742;BME280;20968;42.696;23.360;2023-05-09T13:00:22;95563.66;;;15.52;63.99
34742;BME280;20968;42.696;23.360;2023-05-09T13:02:48;95555.25;;;15.24;64.78
34742;BME280;20968;42.696;23.360;2023-05-09T13:05:17;95553.94;;;15.20;64.88
34742;BME280;20968;42.696;23.360;2023-05-09T13:07:45;95556.31;;;14.90;66.32
34742;BME280;20968;42.696;23.360;2023-05-09T13:10:13;95547.16;;;14.79;67.18
34742;BME280;20968;42.696;23.360;2023-05-09T13:12:39;95556.75;;;14.78;67.35
34742;BME280;20968;42.696;23.360;2023-05-09T13:15:09;95544.69;;;14.45;68.47
34742;BME280;20968;42.696;23.360;2023-05-09T13:17:35;95544.28;;;14.57;68.32